createdAt,value
2022-09-13T00:00:51.822Z,14.30
2022-09-13T00:03:20.806Z,14.30
2022-09-13T00:05:49.233Z,14.30
2022-09-13T00:08:18.023Z,14.40
2022-09-13T00:10:47.221Z,14.40
2022-09-13T00:13:18.296Z,14.30
2022-09-13T00:15:46.951Z,14.30
2022-09-13T00:18:15.288Z,14.20
2022-09-13T00:20:43.431Z,14.20
2022-09-13T00:23:11.507Z,14.20
2022-09-13T00:25:40.055Z,14.20
2022-09-13T00:28:08.532Z,14.10
2022-09-13T00:30:41.028Z,14.10
2022-09-13T00:33:09.068Z,14.20
2022-09-13T00:35:37.085Z,14.00
2022-09-13T00:38:05.099Z,14.00
2022-09-13T00:40:37.769Z,13.90
2022-09-13T00:43:07.127Z,14.00
2022-09-13T00:45:35.329Z,13.90
2022-09-13T00:48:08.332Z,14.00
2022-09-13T00:50:40.251Z,13.80
2022-09-13T00:53:14.983Z,13.80
2022-09-13T00:55:47.815Z,13.80
2022-09-13T00:58:19.730Z,13.80
2022-09-13T01:00:49.312Z,13.80
2022-09-13T01:03:21.001Z,13.70
2022-09-13T01:05:53.923Z,13.70
2022-09-13T01:08:23.485Z,13.60
2022-09-13T01:10:53.080Z,13.50
2022-09-13T01:13:24.014Z,13.50
2022-09-13T01:15:52.987Z,13.50
2022-09-13T01:18:22.572Z,13.40
2022-09-13T01:21:22.179Z,13.50
2022-09-13T01:24:29.179Z,13.50
2022-09-13T01:27:24.888Z,13.50
2022-09-13T01:30:18.143Z,13.40
2022-09-13T01:33:19.335Z,13.40
2022-09-13T01:35:57.636Z,13.30
2022-09-13T01:38:47.714Z,13.30
2022-09-13T01:41:45.781Z,13.10
2022-09-13T01:44:22.439Z,13.10
2022-09-13T01:47:00.426Z,13.10
2022-09-13T01:49:34.849Z,13.20
2022-09-13T01:52:07.002Z,13.10
2022-09-13T01:54:45.176Z,13.10
2022-09-13T01:57:18.213Z,13.10
2022-09-13T01:59:51.660Z,13.00
2022-09-13T02:02:24.427Z,12.90
2022-09-13T02:04:55.831Z,12.90
2022-09-13T02:07:26.979Z,12.90
2022-09-13T02:10:01.199Z,12.90
2022-09-13T02:12:33.019Z,12.90
2022-09-13T02:15:08.440Z,12.90
2022-09-13T02:17:40.768Z,12.90
2022-09-13T02:20:13.532Z,12.80
2022-09-13T02:22:49.764Z,12.80
2022-09-13T02:25:22.106Z,12.80
2022-09-13T02:27:53.951Z,12.90
2022-09-13T02:30:22.347Z,12.80
2022-09-13T02:32:56.228Z,12.80
2022-09-13T02:35:27.443Z,12.80
2022-09-13T02:38:01.908Z,12.80
2022-09-13T02:40:35.063Z,12.80
2022-09-13T02:43:09.899Z,12.80
2022-09-13T02:45:48.086Z,12.70
2022-09-13T02:48:23.276Z,12.70
2022-09-13T02:51:00.863Z,12.60
2022-09-13T02:53:36.158Z,12.60
2022-09-13T02:56:12.365Z,12.60
2022-09-13T02:58:47.552Z,12.60
2022-09-13T03:01:16.317Z,12.50
2022-09-13T03:03:45.902Z,12.50
2022-09-13T03:06:13.921Z,12.40
2022-09-13T03:08:41.916Z,12.40
2022-09-13T03:11:17.738Z,12.40
2022-09-13T03:14:05.877Z,12.40
2022-09-13T03:16:48.758Z,12.40
2022-09-13T03:19:30.032Z,12.60
2022-09-13T03:22:13.159Z,12.40
2022-09-13T03:24:52.430Z,12.30
2022-09-13T03:27:30.007Z,12.30
2022-09-13T03:30:03.375Z,12.30
2022-09-13T03:32:42.171Z,12.30
2022-09-13T03:35:21.789Z,12.30
2022-09-13T03:37:58.192Z,12.30
2022-09-13T03:40:36.153Z,12.30
2022-09-13T03:43:12.032Z,12.30
2022-09-13T03:45:44.355Z,12.30
2022-09-13T03:48:13.535Z,12.40
2022-09-13T03:50:44.060Z,12.50
2022-09-13T03:53:14.742Z,12.40
2022-09-13T03:55:44.222Z,12.40
2022-09-13T03:58:13.837Z,12.40
2022-09-13T04:00:42.034Z,12.40
2022-09-13T04:03:10.464Z,12.40
2022-09-13T04:05:39.121Z,12.40
2022-09-13T04:08:09.283Z,12.40
2022-09-13T04:10:37.903Z,12.60
2022-09-13T04:13:06.315Z,12.50
2022-09-13T04:15:34.262Z,12.50
2022-09-13T04:18:02.314Z,12.40
2022-09-13T04:20:30.375Z,12.40
2022-09-13T04:22:58.955Z,12.30
2022-09-13T04:25:28.564Z,12.30
2022-09-13T04:27:57.004Z,12.30
2022-09-13T04:30:25.416Z,12.20
2022-09-13T04:32:53.748Z,12.20
2022-09-13T04:35:21.815Z,12.10
2022-09-13T04:37:50.022Z,12.00
2022-09-13T04:40:18.326Z,12.00
2022-09-13T04:42:47.843Z,12.00
2022-09-13T04:45:15.904Z,12.10
2022-09-13T04:47:44.004Z,12.10
2022-09-13T04:50:12.041Z,12.10
2022-09-13T04:52:40.073Z,12.20
2022-09-13T04:55:09.076Z,12.20
2022-09-13T04:57:37.119Z,12.20
2022-09-13T05:00:08.114Z,12.20
2022-09-13T05:02:36.207Z,12.10
2022-09-13T05:05:05.028Z,12.20
2022-09-13T05:07:33.051Z,12.30
2022-09-13T05:10:01.146Z,12.30
2022-09-13T05:12:29.253Z,12.30
2022-09-13T05:14:57.403Z,12.10
2022-09-13T05:17:27.395Z,12.40
2022-09-13T05:19:55.448Z,12.10
2022-09-13T05:22:23.406Z,12.20
2022-09-13T05:24:51.431Z,12.30
2022-09-13T05:27:19.471Z,12.40
2022-09-13T05:29:47.432Z,12.40
2022-09-13T05:32:15.499Z,12.60
2022-09-13T05:34:44.849Z,12.90
2022-09-13T05:37:12.931Z,13.30
2022-09-13T05:40:07.499Z,13.70
2022-09-13T05:42:29.210Z,14.10
2022-09-13T05:44:57.432Z,14.00
2022-09-13T05:47:25.434Z,13.80
2022-09-13T05:50:09.908Z,13.60
2022-09-13T05:52:39.094Z,13.40
2022-09-13T05:55:07.372Z,13.20
2022-09-13T05:57:35.332Z,13.50
2022-09-13T06:00:03.972Z,13.70
2022-09-13T06:02:32.941Z,14.10
2022-09-13T06:05:02.397Z,14.60
2022-09-13T06:07:30.320Z,15.00
2022-09-13T06:09:58.558Z,15.10
2022-09-13T06:12:26.536Z,15.30
2022-09-13T06:14:54.559Z,15.40
2022-09-13T06:17:22.672Z,15.40
2022-09-13T06:19:50.729Z,15.40
2022-09-13T06:22:20.050Z,15.80
2022-09-13T06:24:48.037Z,15.80
2022-09-13T06:27:16.068Z,16.00
2022-09-13T06:29:44.182Z,16.30
2022-09-13T06:32:12.133Z,16.60
2022-09-13T06:34:40.135Z,16.90
2022-09-13T06:37:08.064Z,16.90
2022-09-13T06:39:37.357Z,16.70
2022-09-13T06:42:05.817Z,16.40
2022-09-13T06:44:33.963Z,16.30
2022-09-13T06:47:01.969Z,16.40
2022-09-13T06:49:31.543Z,16.90
2022-09-13T06:51:59.593Z,17.20
2022-09-13T06:54:27.559Z,17.50
2022-09-13T06:56:56.817Z,17.50
2022-09-13T06:59:25.025Z,17.80
2022-09-13T07:01:53.191Z,18.20
2022-09-13T07:04:21.284Z,18.40
2022-09-13T07:06:50.638Z,18.40
2022-09-13T07:09:21.777Z,18.60
2022-09-13T07:11:51.478Z,18.70
2022-09-13T07:14:22.452Z,18.60
2022-09-13T07:16:51.869Z,18.70
2022-09-13T07:19:22.896Z,19.00
2022-09-13T07:21:51.525Z,19.60
2022-09-13T07:24:21.232Z,19.90
2022-09-13T07:26:50.044Z,19.60
2022-09-13T07:29:22.740Z,19.80
2022-09-13T07:31:54.322Z,20.00
2022-09-13T07:34:23.892Z,20.20
2022-09-13T07:36:52.592Z,20.50
2022-09-13T07:39:22.969Z,20.50
2022-09-13T07:41:51.538Z,20.50
2022-09-13T07:44:21.111Z,20.70
2022-09-13T07:46:49.261Z,21.20
2022-09-13T07:49:19.722Z,21.80
2022-09-13T07:51:51.401Z,22.20
2022-09-13T07:54:20.208Z,22.20
2022-09-13T07:56:50.283Z,21.80
2022-09-13T07:59:20.700Z,21.70
2022-09-13T08:01:50.339Z,21.90
2022-09-13T08:04:20.208Z,21.90
2022-09-13T08:06:49.061Z,22.10
2022-09-13T08:09:18.293Z,22.30
2022-09-13T08:11:48.317Z,22.30
2022-09-13T08:14:18.322Z,22.10
2022-09-13T08:16:47.871Z,22.30
2022-09-13T08:19:18.333Z,22.70
2022-09-13T08:21:47.220Z,22.80
2022-09-13T08:24:17.216Z,23.20
2022-09-13T08:26:45.750Z,23.50
2022-09-13T08:29:15.141Z,23.80
2022-09-13T08:31:43.596Z,24.10
2022-09-13T08:34:14.798Z,24.40
2022-09-13T08:36:43.224Z,24.60
2022-09-13T08:39:12.959Z,24.90
2022-09-13T08:42:09.095Z,25.20
2022-09-13T08:44:40.395Z,25.40
2022-09-13T08:47:25.337Z,25.70
2022-09-13T08:50:02.145Z,25.90
2022-09-13T08:52:34.091Z,25.90
2022-09-13T08:55:07.689Z,25.80
2022-09-13T08:57:44.326Z,25.90
2022-09-13T09:00:20.970Z,26.00
2022-09-13T09:03:09.814Z,26.30
2022-09-13T09:05:47.893Z,26.40
2022-09-13T09:08:27.566Z,26.80
2022-09-13T09:10:57.885Z,26.60
2022-09-13T09:13:30.998Z,26.50
2022-09-13T09:16:02.539Z,26.80
2022-09-13T09:18:34.325Z,26.10
2022-09-13T09:21:04.562Z,25.80
2022-09-13T09:23:39.064Z,26.00
2022-09-13T09:26:18.124Z,26.30
2022-09-13T09:28:49.296Z,26.40
2022-09-13T09:31:23.984Z,26.80
2022-09-13T09:34:04.110Z,26.90
2022-09-13T09:36:40.602Z,27.50
2022-09-13T09:39:13.315Z,28.10
2022-09-13T09:41:41.696Z,28.30
2022-09-13T09:44:18.708Z,28.50
2022-09-13T09:46:50.391Z,28.60
2022-09-13T09:49:40.160Z,28.70
2022-09-13T09:52:13.265Z,28.80
2022-09-13T09:54:41.818Z,29.20
2022-09-13T09:57:10.010Z,29.30
2022-09-13T09:59:38.037Z,29.30
2022-09-13T10:02:17.358Z,29.20
2022-09-13T10:04:56.176Z,29.20
2022-09-13T10:07:32.646Z,29.30
2022-09-13T10:10:04.058Z,29.60
2022-09-13T10:12:35.418Z,29.70
2022-09-13T10:15:15.990Z,29.90
2022-09-13T10:17:44.178Z,29.90
2022-09-13T10:20:26.771Z,30.00
2022-09-13T10:23:19.000Z,30.10
2022-09-13T10:25:57.823Z,30.20
2022-09-13T10:28:26.931Z,30.10
2022-09-13T10:30:57.461Z,30.30
2022-09-13T10:33:32.232Z,30.60
2022-09-13T10:36:04.401Z,31.00
2022-09-13T10:38:37.368Z,31.40
2022-09-13T10:41:10.195Z,31.80
2022-09-13T10:43:39.250Z,32.00
2022-09-13T10:46:15.264Z,32.20
2022-09-13T10:48:55.735Z,32.30
2022-09-13T10:51:36.788Z,32.20
2022-09-13T10:54:21.155Z,32.00
2022-09-13T10:56:50.859Z,31.30
2022-09-13T10:59:23.210Z,30.80
2022-09-13T11:02:11.787Z,30.60
2022-09-13T11:05:20.097Z,30.90
2022-09-13T11:08:32.714Z,31.10
2022-09-13T11:11:12.479Z,31.00
2022-09-13T11:13:54.945Z,30.50
2022-09-13T11:16:39.425Z,30.20
2022-09-13T11:19:27.786Z,30.10
2022-09-13T11:22:18.306Z,30.00
2022-09-13T11:25:07.527Z,30.00
2022-09-13T11:27:49.753Z,29.90
2022-09-13T11:30:19.930Z,30.40
2022-09-13T11:33:03.400Z,31.00
2022-09-13T11:35:58.844Z,31.60
2022-09-13T11:38:37.700Z,32.20
2022-09-13T11:41:18.671Z,32.60
2022-09-13T11:43:58.585Z,32.80
2022-09-13T11:46:34.450Z,32.80
2022-09-13T11:49:22.077Z,32.90
2022-09-13T11:51:59.259Z,32.70
2022-09-13T11:54:38.675Z,32.70
2022-09-13T11:57:12.557Z,32.70
2022-09-13T11:59:46.234Z,32.90
2022-09-13T12:02:21.705Z,32.60
2022-09-13T12:05:20.512Z,32.20
2022-09-13T12:07:47.849Z,32.50
2022-09-13T12:10:21.998Z,32.90
2022-09-13T12:12:52.207Z,33.20
2022-09-13T12:15:30.708Z,33.50
2022-09-13T12:18:03.891Z,33.60
2022-09-13T12:20:35.312Z,33.40
2022-09-13T12:23:06.883Z,33.20
2022-09-13T12:25:42.876Z,33.10
2022-09-13T12:28:18.350Z,32.70
2022-09-13T12:30:53.782Z,32.20
2022-09-13T12:33:22.353Z,32.20
2022-09-13T12:36:04.428Z,32.20
2022-09-13T12:38:50.505Z,32.10
2022-09-13T12:41:37.465Z,32.10
2022-09-13T12:44:36.136Z,31.90
2022-09-13T12:47:38.756Z,31.90
2022-09-13T12:50:42.447Z,31.90
2022-09-13T12:53:29.086Z,31.80
2022-09-13T12:56:04.014Z,31.80
2022-09-13T12:58:48.166Z,31.80
2022-09-13T13:01:19.171Z,31.80
2022-09-13T13:03:54.544Z,31.50
2022-09-13T13:06:30.559Z,31.00
2022-09-13T13:09:01.233Z,30.70
2022-09-13T13:11:31.401Z,30.60
2022-09-13T13:14:02.263Z,30.50
2022-09-13T13:16:33.121Z,30.40
2022-09-13T13:19:03.459Z,30.40
2022-09-13T13:21:34.355Z,30.80
2022-09-13T13:24:39.724Z,30.90
2022-09-13T13:27:48.432Z,31.20
2022-09-13T13:30:50.129Z,31.30
2022-09-13T13:33:25.810Z,31.30
2022-09-13T13:35:55.758Z,31.20
2022-09-13T13:38:48.113Z,31.00
2022-09-13T13:41:45.826Z,31.00
2022-09-13T13:44:51.132Z,30.80
2022-09-13T13:48:01.707Z,30.40
2022-09-13T13:50:29.871Z,30.30
2022-09-13T13:53:15.045Z,30.50
2022-09-13T13:55:45.327Z,30.80
2022-09-13T13:58:43.674Z,30.90
2022-09-13T14:01:18.557Z,31.10
2022-09-13T14:04:08.632Z,31.30
2022-09-13T14:06:49.395Z,31.20
2022-09-13T14:09:33.422Z,31.30
2022-09-13T14:12:22.944Z,31.50
2022-09-13T14:15:10.015Z,31.30
2022-09-13T14:18:07.300Z,31.30
2022-09-13T14:20:35.397Z,31.30
2022-09-13T14:23:14.311Z,31.30
2022-09-13T14:25:44.712Z,31.20
2022-09-13T14:28:18.860Z,31.20
2022-09-13T14:30:47.801Z,31.20
2022-09-13T14:33:24.831Z,31.20
2022-09-13T14:36:00.414Z,31.10
2022-09-13T14:38:33.739Z,31.10
2022-09-13T14:41:13.320Z,31.10
2022-09-13T14:43:42.341Z,31.10
2022-09-13T14:46:17.500Z,31.00
2022-09-13T14:48:51.746Z,31.00
2022-09-13T14:51:25.370Z,30.80
2022-09-13T14:53:58.399Z,30.70
2022-09-13T14:56:35.999Z,30.50
2022-09-13T14:59:08.875Z,30.20
2022-09-13T15:01:37.343Z,29.90
2022-09-13T15:04:07.330Z,29.80
2022-09-13T15:06:38.438Z,29.70
2022-09-13T15:09:24.106Z,29.50
2022-09-13T15:12:02.882Z,29.40
2022-09-13T15:14:32.612Z,29.30
2022-09-13T15:17:07.900Z,29.20
2022-09-13T15:19:41.373Z,29.10
2022-09-13T15:22:20.448Z,29.10
2022-09-13T15:24:51.357Z,29.10
2022-09-13T15:27:25.531Z,29.10
2022-09-13T15:29:55.727Z,29.10
2022-09-13T15:32:30.352Z,29.00
2022-09-13T15:35:00.437Z,29.00
2022-09-13T15:37:37.481Z,28.90
2022-09-13T15:40:20.792Z,28.80
2022-09-13T15:42:54.116Z,28.70
2022-09-13T15:45:23.609Z,28.60
2022-09-13T15:47:53.634Z,28.40
2022-09-13T15:50:23.975Z,28.30
2022-09-13T15:52:52.208Z,28.20
2022-09-13T15:55:20.552Z,28.00
2022-09-13T15:57:49.178Z,27.80
2022-09-13T16:00:21.260Z,27.80
2022-09-13T16:02:49.445Z,27.70
2022-09-13T16:05:18.118Z,27.50
2022-09-13T16:07:46.468Z,27.40
2022-09-13T16:10:18.586Z,27.30
2022-09-13T16:12:46.919Z,27.20
2022-09-13T16:15:15.058Z,27.20
2022-09-13T16:17:44.527Z,27.10
2022-09-13T16:20:15.064Z,27.00
2022-09-13T16:22:43.613Z,27.00
2022-09-13T16:25:14.063Z,27.00
2022-09-13T16:27:42.858Z,26.90
2022-09-13T16:30:14.059Z,26.90
2022-09-13T16:32:42.462Z,26.80
2022-09-13T16:35:13.364Z,26.80
2022-09-13T16:37:41.939Z,26.70
2022-09-13T16:40:11.039Z,26.60
2022-09-13T16:42:39.257Z,26.50
2022-09-13T16:45:08.381Z,26.50
2022-09-13T16:47:36.736Z,26.30
2022-09-13T16:50:06.277Z,26.20
2022-09-13T16:52:36.223Z,26.20
2022-09-13T16:55:05.093Z,26.20
2022-09-13T16:57:33.077Z,26.10
2022-09-13T17:00:01.023Z,26.10
2022-09-13T17:02:29.528Z,26.00
2022-09-13T17:04:57.577Z,26.10
2022-09-13T17:07:25.526Z,25.90
2022-09-13T17:09:54.794Z,25.90
2022-09-13T17:12:22.726Z,25.80
2022-09-13T17:14:50.785Z,25.90
2022-09-13T17:17:18.958Z,25.80
2022-09-13T17:19:46.970Z,25.70
2022-09-13T17:22:16.435Z,25.60
2022-09-13T17:24:44.736Z,25.50
2022-09-13T17:27:14.031Z,25.40
2022-09-13T17:29:41.960Z,25.30
2022-09-13T17:32:09.981Z,25.20
2022-09-13T17:34:37.960Z,25.10
2022-09-13T17:37:06.827Z,25.10
2022-09-13T17:39:34.852Z,25.00
2022-09-13T17:42:02.778Z,24.90
2022-09-13T17:44:32.099Z,24.70
2022-09-13T17:47:00.043Z,24.60
2022-09-13T17:49:28.073Z,24.70
2022-09-13T17:51:56.438Z,24.40
2022-09-13T17:54:24.347Z,24.40
2022-09-13T17:56:52.682Z,24.30
2022-09-13T17:59:22.458Z,24.30
2022-09-13T18:01:54.119Z,24.20
2022-09-13T18:04:24.283Z,24.00
2022-09-13T18:06:52.683Z,23.90
2022-09-13T18:09:21.517Z,23.80
2022-09-13T18:11:49.734Z,23.70
2022-09-13T18:14:19.387Z,23.60
2022-09-13T18:16:49.353Z,23.50
2022-09-13T18:19:29.866Z,23.50
2022-09-13T18:22:06.930Z,23.40
2022-09-13T18:24:35.224Z,23.20
2022-09-13T18:27:03.895Z,23.20
2022-09-13T18:29:32.948Z,23.10
2022-09-13T18:32:01.055Z,23.00
2022-09-13T18:34:30.461Z,23.10
2022-09-13T18:36:58.631Z,22.80
2022-09-13T18:39:26.583Z,22.80
2022-09-13T18:41:54.492Z,22.80
2022-09-13T18:44:22.416Z,22.80
2022-09-13T18:46:51.412Z,22.70
2022-09-13T18:49:19.738Z,22.80
2022-09-13T18:51:49.760Z,22.80
2022-09-13T18:54:19.291Z,22.90
2022-09-13T18:56:48.307Z,22.80
2022-09-13T18:59:16.246Z,22.60
2022-09-13T19:01:45.385Z,22.60
2022-09-13T19:04:15.756Z,22.50
2022-09-13T19:06:45.887Z,22.40
2022-09-13T19:09:16.077Z,22.40
2022-09-13T19:11:47.830Z,22.30
2022-09-13T19:14:17.407Z,22.40
2022-09-13T19:16:45.748Z,22.40
2022-09-13T19:19:13.852Z,22.30
2022-09-13T19:21:43.188Z,22.20
2022-09-13T19:24:17.784Z,22.20
2022-09-13T19:26:50.935Z,22.20
2022-09-13T19:29:21.374Z,22.20
2022-09-13T19:31:50.777Z,22.10
2022-09-13T19:34:20.167Z,22.00
2022-09-13T19:36:50.896Z,21.90
2022-09-13T19:39:19.080Z,21.90
2022-09-13T19:41:48.447Z,21.80
2022-09-13T19:44:16.780Z,21.80
2022-09-13T19:46:44.922Z,21.70
2022-09-13T19:49:14.678Z,21.70
2022-09-13T19:51:45.533Z,21.70
2022-09-13T19:54:18.785Z,21.70
2022-09-13T19:56:48.124Z,21.70
2022-09-13T19:59:19.723Z,21.70
2022-09-13T20:01:48.786Z,21.70
2022-09-13T20:04:18.750Z,21.40
2022-09-13T20:06:48.292Z,21.20
2022-09-13T20:09:18.074Z,21.40
2022-09-13T20:11:47.393Z,21.20
2022-09-13T20:14:18.571Z,21.10
2022-09-13T20:16:46.981Z,21.10
2022-09-13T20:19:39.403Z,21.20
2022-09-13T20:22:06.929Z,21.20
2022-09-13T20:24:34.885Z,21.30
2022-09-13T20:27:02.784Z,21.30
2022-09-13T20:29:32.472Z,21.10
2022-09-13T20:32:02.184Z,21.20
2022-09-13T20:34:30.183Z,21.10
2022-09-13T20:36:58.099Z,21.10
2022-09-13T20:39:26.032Z,21.00
2022-09-13T20:41:54.713Z,20.90
2022-09-13T20:44:22.672Z,20.80
2022-09-13T20:46:52.110Z,20.80
2022-09-13T20:49:20.119Z,20.70
2022-09-13T20:51:49.361Z,20.70
2022-09-13T20:54:17.444Z,20.60
2022-09-13T20:56:46.392Z,20.70
2022-09-13T20:59:14.637Z,20.70
2022-09-13T21:01:42.661Z,20.70
2022-09-13T21:04:12.000Z,20.70
2022-09-13T21:07:02.533Z,20.80
2022-09-13T21:09:30.036Z,20.80
2022-09-13T21:11:58.056Z,20.80
2022-09-13T21:14:26.015Z,20.70
2022-09-13T21:16:55.111Z,20.70
2022-09-13T21:19:26.630Z,20.90
2022-09-13T21:21:55.173Z,20.70
2022-09-13T21:24:23.021Z,20.70
2022-09-13T21:26:50.882Z,20.80
2022-09-13T21:29:18.783Z,20.70
2022-09-13T21:31:46.729Z,20.80
2022-09-13T21:34:16.418Z,20.70
2022-09-13T21:36:47.104Z,20.60
2022-09-13T21:39:16.262Z,20.60
2022-09-13T21:41:44.728Z,20.50
2022-09-13T21:44:13.073Z,20.60
2022-09-13T21:46:42.293Z,20.70
2022-09-13T21:49:12.770Z,20.70
2022-09-13T21:51:42.904Z,20.60
2022-09-13T21:54:14.200Z,20.60
2022-09-13T21:56:43.482Z,20.30
2022-09-13T21:59:15.521Z,20.40
2022-09-13T22:01:46.758Z,20.30
2022-09-13T22:04:17.652Z,20.30
2022-09-13T22:06:46.647Z,20.40
2022-09-13T22:09:16.814Z,20.30
2022-09-13T22:11:46.982Z,20.30
2022-09-13T22:14:18.561Z,20.30
2022-09-13T22:16:47.431Z,20.40
2022-09-13T22:19:17.077Z,20.20
2022-09-13T22:21:46.800Z,20.00
2022-09-13T22:24:18.477Z,20.00
2022-09-13T22:26:47.465Z,20.00
2022-09-13T22:29:16.306Z,20.00
2022-09-13T22:31:45.965Z,20.00
2022-09-13T22:34:16.131Z,19.90
2022-09-13T22:36:44.908Z,19.80
2022-09-13T22:39:14.768Z,19.80
2022-09-13T22:41:44.813Z,19.80
2022-09-13T22:44:13.134Z,19.90
2022-09-13T22:46:43.155Z,19.80
2022-09-13T22:49:14.080Z,19.80
2022-09-13T22:51:44.992Z,19.70
2022-09-13T22:54:13.395Z,19.80
2022-09-13T22:56:41.421Z,19.70
2022-09-13T22:59:14.596Z,19.70
2022-09-13T23:01:42.855Z,19.70
2022-09-13T23:04:11.066Z,19.80
2022-09-13T23:06:39.538Z,19.80
2022-09-13T23:09:09.455Z,19.80
2022-09-13T23:11:39.511Z,19.80
2022-09-13T23:14:10.794Z,19.90
2022-09-13T23:16:40.602Z,19.80
2022-09-13T23:19:08.874Z,19.80
2022-09-13T23:21:38.721Z,20.00
2022-09-13T23:24:08.367Z,20.00
2022-09-13T23:26:36.328Z,20.00
2022-09-13T23:29:05.785Z,19.90
2022-09-13T23:31:38.876Z,19.90
2022-09-13T23:34:08.576Z,20.00
2022-09-13T23:36:38.919Z,20.00
2022-09-13T23:39:08.856Z,19.90
2022-09-13T23:41:37.077Z,19.80
2022-09-13T23:44:05.703Z,19.80
2022-09-13T23:46:35.472Z,19.90
2022-09-13T23:49:03.654Z,19.80
2022-09-13T23:51:31.700Z,19.80
2022-09-13T23:54:01.205Z,19.70
2022-09-13T23:56:31.363Z,19.80
2022-09-13T23:59:01.197Z,19.90
